Time;durP1;ratioP1;P1;durP2;ratioP2;P2;SDS_P1;SDS_P2;PMS_P1;PMS_P2;Temp;Humidity;BMP_temperature;BMP_pressure;BME280_temperature;BME280_humidity;BME280_pressure;Samples;Min_cycle;Max_cycle;Signal;HPM_P1;HPM_P2
2021/12/30 00:01:14;;;;;;;43.25;16.75;;;8.80;65.80;;;;;;5054104;28;20044;-87
2021/12/30 00:03:40;;;;;;;52.50;17.70;;;8.90;65.60;;;;;;5054213;28;20029;-84
2021/12/30 00:06:07;;;;;;;43.05;17.63;;;8.90;64.70;;;;;;5054166;28;20108;-88
2021/12/30 00:08:33;;;;;;;34.55;16.00;;;9.00;65.10;;;;;;5054233;28;20017;-83
2021/12/30 00:10:59;;;;;;;39.40;15.85;;;8.80;65.00;;;;;;5053770;28;20382;-84
2021/12/30 00:13:25;;;;;;;69.93;19.20;;;8.50;66.00;;;;;;5054827;28;20352;-83
2021/12/30 00:15:51;;;;;;;32.97;14.88;;;8.60;65.60;;;;;;5054103;28;20021;-82
2021/12/30 00:18:18;;;;;;;40.85;16.42;;;9.00;65.00;;;;;;5053950;28;20368;-83
2021/12/30 00:20:44;;;;;;;31.92;14.68;;;9.00;64.80;;;;;;5053745;28;20084;-86
2021/12/30 00:23:10;;;;;;;35.22;14.55;;;9.00;64.80;;;;;;5053844;28;20020;-88
2021/12/30 00:25:41;;;;;;;41.45;16.30;;;9.10;64.60;;;;;;5053688;28;20052;-84
2021/12/30 00:28:11;;;;;;;30.63;14.43;;;9.50;63.80;;;;;;5053822;28;20438;-90
2021/12/30 00:30:37;;;;;;;35.50;14.90;;;9.30;63.50;;;;;;5052448;28;20118;-90
2021/12/30 00:33:03;;;;;;;32.72;14.88;;;9.20;63.70;;;;;;5053454;28;20426;-86
2021/12/30 00:35:29;;;;;;;33.17;14.45;;;9.20;63.80;;;;;;5053652;28;20025;-84
2021/12/30 00:37:55;;;;;;;34.42;14.95;;;8.90;64.60;;;;;;5053628;28;20021;-85
2021/12/30 00:40:21;;;;;;;32.17;14.27;;;8.90;64.50;;;;;;5053365;28;20021;-89
2021/12/30 00:42:47;;;;;;;32.58;13.95;;;9.10;64.20;;;;;;5053378;28;20062;-83
2021/12/30 00:45:12;;;;;;;29.08;13.27;;;9.10;64.00;;;;;;5054357;28;20454;-82
2021/12/30 00:47:38;;;;;;;26.95;12.68;;;8.90;63.80;;;;;;5053414;28;20611;-90
2021/12/30 00:50:04;;;;;;;29.95;12.80;;;8.90;64.00;;;;;;5065643;28;20027;-83
2021/12/30 00:52:30;;;;;;;22.85;11.13;;;8.90;63.60;;;;;;5070694;28;20024;-84
2021/12/30 00:54:56;;;;;;;24.63;11.63;;;8.80;64.30;;;;;;5057125;28;20024;-90
2021/12/30 00:57:22;;;;;;;30.25;12.48;;;8.70;64.90;;;;;;5065465;28;20024;-90
2021/12/30 00:59:47;;;;;;;23.95;11.32;;;8.60;64.60;;;;;;5053158;28;20024;-85
2021/12/30 01:02:13;;;;;;;27.73;11.85;;;8.70;64.80;;;;;;5062165;28;20457;-84
2021/12/30 01:04:39;;;;;;;27.33;11.98;;;8.90;64.90;;;;;;5060637;28;20079;-83
2021/12/30 01:07:05;;;;;;;30.05;12.60;;;9.00;64.00;;;;;;5068184;28;20023;-83
2021/12/30 01:09:30;;;;;;;24.65;10.88;;;9.20;63.30;;;;;;5055110;28;20025;-83
2021/12/30 01:11:58;;;;;;;22.45;11.18;;;8.90;63.40;;;;;;5052745;28;20035;-90
2021/12/30 01:14:27;;;;;;;22.30;11.55;;;8.80;64.00;;;;;;5054083;28;20118;-87
2021/12/30 01:16:57;;;;;;;24.00;11.30;;;8.70;64.40;;;;;;5053780;28;20043;-84
2021/12/30 01:19:42;;;;;;;29.17;12.77;;;9.00;63.60;;;;;;5053959;28;20043;-85
2021/12/30 01:22:14;;;;;;;23.05;11.52;;;8.30;65.50;;;;;;5052796;28;20020;-87
2021/12/30 01:24:40;;;;;;;30.00;13.00;;;8.10;66.30;;;;;;5067518;28;20051;-82
2021/12/30 01:27:06;;;;;;;29.50;11.63;;;8.30;65.90;;;;;;5055532;28;20036;-86
2021/12/30 01:29:33;;;;;;;25.27;11.23;;;8.40;64.60;;;;;;5052652;28;20456;-85
2021/12/30 01:31:58;;;;;;;27.85;12.15;;;9.10;63.90;;;;;;5053558;28;20072;-83
2021/12/30 01:34:27;;;;;;;32.58;14.07;;;9.60;62.60;;;;;;5054573;28;20068;-85
2021/12/30 01:36:53;;;;;;;32.72;14.80;;;10.00;61.30;;;;;;5053910;28;20477;-83
2021/12/30 01:39:21;;;;;;;31.73;13.93;;;10.40;60.20;;;;;;5053583;28;20021;-87
2021/12/30 01:41:46;;;;;;;26.58;12.88;;;10.30;59.90;;;;;;5062938;28;20371;-84
2021/12/30 01:44:12;;;;;;;29.30;13.50;;;10.30;60.00;;;;;;5071412;28;20025;-85
2021/12/30 01:46:41;;;;;;;25.58;11.05;;;10.20;60.00;;;;;;5070849;28;20020;-86
2021/12/30 01:49:08;;;;;;;30.60;11.98;;;10.00;60.40;;;;;;5070891;28;20021;-87
2021/12/30 01:51:34;;;;;;;31.73;13.20;;;10.00;60.80;;;;;;5059977;28;20084;-84
2021/12/30 01:54:00;;;;;;;27.45;12.80;;;10.00;60.70;;;;;;5054454;28;20021;-89
2021/12/30 01:56:26;;;;;;;29.58;13.10;;;10.00;60.20;;;;;;5052491;28;20463;-85
2021/12/30 01:58:55;;;;;;;33.13;13.27;;;10.10;60.60;;;;;;5052580;28;20460;-83
2021/12/30 02:01:20;;;;;;;30.08;11.98;;;10.30;60.10;;;;;;5067142;28;20064;-82
2021/12/30 02:03:46;;;;;;;31.60;13.35;;;10.10;60.10;;;;;;5066655;28;20117;-88
2021/12/30 02:06:12;;;;;;;31.30;12.85;;;10.00;60.90;;;;;;5053467;28;20487;-84
2021/12/30 02:08:38;;;;;;;27.75;12.65;;;10.20;60.50;;;;;;5053698;28;20024;-88
2021/12/30 02:11:04;;;;;;;31.77;13.40;;;10.20;60.40;;;;;;5070130;28;20024;-84
2021/12/30 02:13:30;;;;;;;38.60;14.30;;;10.40;59.70;;;;;;5069405;28;20028;-90
2021/12/30 02:16:00;;;;;;;37.30;14.57;;;10.40;59.70;;;;;;5058251;28;20047;-90
2021/12/30 02:18:27;;;;;;;32.83;14.02;;;10.50;59.50;;;;;;5070518;28;20115;-87
2021/12/30 02:20:58;;;;;;;32.08;13.27;;;10.70;59.00;;;;;;5056545;28;20029;-87
2021/12/30 02:23:25;;;;;;;31.65;13.25;;;10.70;59.00;;;;;;5072072;28;20523;-88
2021/12/30 02:25:54;;;;;;;26.77;12.02;;;10.70;59.00;;;;;;5070649;28;20033;-89
2021/12/30 02:28:25;;;;;;;28.20;12.17;;;10.60;59.10;;;;;;5066684;28;20028;-83
2021/12/30 02:30:53;;;;;;;30.38;12.32;;;10.50;59.50;;;;;;5052973;28;20045;-90
2021/12/30 02:33:19;;;;;;;25.73;11.93;;;10.60;59.40;;;;;;5058041;28;20021;-91
2021/12/30 02:35:44;;;;;;;25.58;11.85;;;10.70;59.00;;;;;;5071760;28;20027;-87
2021/12/30 02:38:10;;;;;;;23.83;11.50;;;10.40;59.60;;;;;;5070215;28;20426;-82
2021/12/30 02:40:49;;;;;;;24.83;11.93;;;10.20;59.70;;;;;;5068501;28;20108;-81
2021/12/30 02:43:19;;;;;;;23.33;11.85;;;9.80;60.40;;;;;;5053240;28;20028;-81
2021/12/30 02:45:45;;;;;;;25.15;11.88;;;9.40;61.50;;;;;;5051826;28;20398;-83
2021/12/30 02:48:17;;;;;;;24.13;11.00;;;9.20;62.00;;;;;;5053069;28;20025;-89
2021/12/30 02:50:45;;;;;;;25.98;11.48;;;8.90;63.10;;;;;;5066497;28;20123;-84
2021/12/30 02:53:12;;;;;;;23.67;11.20;;;9.00;62.90;;;;;;5071834;28;20060;-88
2021/12/30 02:55:38;;;;;;;22.40;11.25;;;9.10;62.40;;;;;;5065207;28;20029;-89
2021/12/30 02:58:04;;;;;;;25.13;11.10;;;9.40;61.70;;;;;;5067065;28;20033;-89
2021/12/30 03:00:30;;;;;;;23.42;11.95;;;9.30;61.80;;;;;;5055753;28;20063;-83
2021/12/30 03:02:56;;;;;;;23.25;10.80;;;9.50;61.70;;;;;;5061185;28;20025;-80
2021/12/30 03:05:24;;;;;;;21.90;9.95;;;9.50;60.70;;;;;;5070739;28;20092;-88
2021/12/30 03:07:51;;;;;;;20.38;9.77;;;8.90;62.10;;;;;;5056658;28;20036;-87
2021/12/30 03:10:19;;;;;;;21.63;10.43;;;8.40;63.80;;;;;;5055943;28;20039;-84
2021/12/30 03:12:45;;;;;;;25.23;11.02;;;8.30;64.10;;;;;;5055792;28;20367;-86
2021/12/30 03:15:15;;;;;;;22.60;11.13;;;8.00;64.80;;;;;;5064835;28;20028;-89
2021/12/30 03:17:41;;;;;;;27.20;11.23;;;8.20;65.00;;;;;;5074909;28;20024;-89
2021/12/30 03:20:09;;;;;;;23.45;11.25;;;8.70;63.60;;;;;;5061338;28;20059;-87
2021/12/30 03:22:42;;;;;;;23.55;10.98;;;9.10;62.20;;;;;;5069446;28;20022;-84
2021/12/30 03:25:10;;;;;;;23.08;11.38;;;9.60;61.00;;;;;;5072956;28;20066;-90
2021/12/30 03:27:36;;;;;;;20.95;10.73;;;9.70;61.40;;;;;;5073119;28;20035;-83
2021/12/30 03:30:08;;;;;;;21.35;11.25;;;10.00;60.40;;;;;;5075206;28;20029;-87
2021/12/30 03:32:34;;;;;;;26.42;12.48;;;10.20;59.60;;;;;;5075626;28;20022;-83
2021/12/30 03:35:00;;;;;;;29.30;12.30;;;10.20;59.90;;;;;;5075994;28;20016;-83
2021/12/30 03:37:26;;;;;;;25.33;12.20;;;10.20;59.80;;;;;;5073819;28;20020;-83
2021/12/30 03:39:52;;;;;;;27.25;11.95;;;10.30;59.70;;;;;;5071151;28;20012;-86
2021/12/30 03:42:18;;;;;;;30.20;12.45;;;10.20;59.50;;;;;;5075974;28;20016;-86
2021/12/30 03:44:46;;;;;;;26.52;11.88;;;10.20;59.50;;;;;;5075832;28;20408;-84
2021/12/30 03:47:15;;;;;;;25.83;11.50;;;10.30;59.40;;;;;;5073897;28;20019;-84
2021/12/30 03:49:46;;;;;;;29.60;12.43;;;10.20;59.80;;;;;;5060798;28;20062;-84
2021/12/30 03:52:15;;;;;;;29.10;12.32;;;10.20;59.90;;;;;;5058049;28;20083;-87
2021/12/30 03:54:42;;;;;;;24.77;11.95;;;10.30;59.40;;;;;;5065736;28;20519;-86
2021/12/30 03:57:08;;;;;;;24.80;11.55;;;10.30;59.30;;;;;;5063772;28;20021;-84
2021/12/30 03:59:34;;;;;;;33.10;13.50;;;10.10;59.80;;;;;;5056746;28;20020;-90
2021/12/30 04:02:00;;;;;;;30.98;12.32;;;10.00;60.40;;;;;;5056772;28;20107;-87
2021/12/30 04:04:26;;;;;;;34.65;14.20;;;9.90;60.20;;;;;;5065108;28;20008;-84
2021/12/30 04:06:52;;;;;;;27.42;12.20;;;9.60;61.10;;;;;;5075574;28;20027;-87
2021/12/30 04:09:18;;;;;;;28.25;12.43;;;9.50;61.30;;;;;;5073535;28;20027;-91
2021/12/30 04:11:44;;;;;;;31.02;12.43;;;9.60;61.30;;;;;;5056645;28;20031;-90
2021/12/30 04:14:10;;;;;;;32.85;14.25;;;9.70;61.50;;;;;;5056462;28;20482;-87
2021/12/30 04:16:37;;;;;;;37.58;15.15;;;9.90;61.20;;;;;;5056426;28;20048;-84
2021/12/30 04:19:04;;;;;;;42.70;16.95;;;10.10;60.10;;;;;;5057087;28;20371;-84
2021/12/30 04:21:30;;;;;;;93.15;26.60;;;9.90;61.00;;;;;;5057288;28;20031;-85
2021/12/30 04:23:56;;;;;;;37.00;15.30;;;10.00;60.60;;;;;;5057192;28;20027;-82
2021/12/30 04:26:22;;;;;;;34.25;13.30;;;10.00;60.20;;;;;;5056892;28;20459;-87
2021/12/30 04:28:48;;;;;;;40.42;13.30;;;9.90;60.90;;;;;;5056847;28;20016;-85
2021/12/30 04:31:14;;;;;;;40.17;14.52;;;9.50;61.50;;;;;;5056441;28;20072;-88
2021/12/30 04:33:40;;;;;;;43.40;14.98;;;9.10;62.30;;;;;;5056200;28;20016;-83
2021/12/30 04:36:06;;;;;;;38.65;14.40;;;8.90;63.60;;;;;;5066864;28;20032;-84
2021/12/30 04:38:33;;;;;;;41.60;14.82;;;8.90;63.10;;;;;;5057099;28;20046;-89
2021/12/30 04:41:00;;;;;;;43.78;15.38;;;9.10;63.60;;;;;;5060409;28;20081;-87
2021/12/30 04:43:26;;;;;;;51.88;16.13;;;9.60;62.30;;;;;;5074819;28;20439;-90
2021/12/30 04:45:52;;;;;;;43.63;14.52;;;9.80;61.90;;;;;;5074462;28;20522;-81
2021/12/30 04:48:20;;;;;;;42.42;14.90;;;9.80;61.30;;;;;;5074343;28;20020;-85
2021/12/30 04:50:46;;;;;;;39.50;14.02;;;9.80;61.40;;;;;;5074394;28;20028;-84
2021/12/30 04:53:13;;;;;;;37.83;13.02;;;9.60;61.60;;;;;;5085783;28;20017;-86
2021/12/30 04:55:39;;;;;;;38.15;12.98;;;9.40;62.20;;;;;;5075334;28;20028;-87
2021/12/30 04:58:05;;;;;;;33.30;13.43;;;9.00;63.50;;;;;;5056779;28;20032;-88
2021/12/30 05:00:31;;;;;;;30.85;12.82;;;9.10;62.90;;;;;;5076306;28;20032;-87
2021/12/30 05:05:33;;;;;;;28.63;11.63;;;9.20;63.60;;;;;;5094313;28;20012;-85
2021/12/30 05:07:59;;;;;;;33.22;13.20;;;9.20;62.80;;;;;;5066944;28;20052;-82
2021/12/30 05:10:26;;;;;;;35.72;14.15;;;9.20;63.00;;;;;;5085969;28;20076;-86
2021/12/30 05:12:53;;;;;;;30.30;12.00;;;9.10;62.90;;;;;;5076072;28;20173;-84
2021/12/30 05:15:19;;;;;;;30.38;13.00;;;9.30;62.80;;;;;;5069356;28;20462;-83
2021/12/30 05:17:44;;;;;;;32.30;12.55;;;9.20;62.60;;;;;;5074128;28;20041;-83
2021/12/30 05:20:12;;;;;;;26.70;11.52;;;9.30;62.50;;;;;;5074744;28;20513;-86
2021/12/30 05:22:38;;;;;;;30.30;12.18;;;9.40;62.30;;;;;;5076278;28;20418;-83
2021/12/30 05:25:05;;;;;;;29.60;12.43;;;9.80;61.30;;;;;;5075100;28;20020;-85
2021/12/30 05:27:30;;;;;;;40.20;14.75;;;10.00;60.80;;;;;;5061203;28;20021;-89
2021/12/30 05:29:56;;;;;;;39.08;13.35;;;10.30;60.30;;;;;;5063594;28;20039;-85
2021/12/30 05:32:23;;;;;;;35.50;14.40;;;10.40;59.90;;;;;;5075644;28;20040;-84
2021/12/30 05:34:49;;;;;;;32.42;13.43;;;10.60;59.80;;;;;;5075809;28;20028;-87
2021/12/30 05:37:15;;;;;;;34.65;13.80;;;10.70;59.30;;;;;;5094009;28;20023;-89
2021/12/30 05:39:42;;;;;;;36.35;13.07;;;10.80;59.10;;;;;;5072804;28;20020;-87
2021/12/30 05:42:08;;;;;;;32.45;12.98;;;10.80;59.00;;;;;;5055998;28;20112;-83
2021/12/30 05:44:34;;;;;;;36.70;13.90;;;10.70;58.90;;;;;;5056003;28;20046;-89
2021/12/30 05:47:00;;;;;;;35.90;13.68;;;10.70;58.90;;;;;;5056007;28;20067;-88
2021/12/30 05:49:25;;;;;;;42.33;14.88;;;10.70;58.90;;;;;;5056883;28;20012;-88
2021/12/30 05:51:51;;;;;;;37.75;14.10;;;10.70;59.20;;;;;;5074567;28;20029;-87
2021/12/30 05:54:17;;;;;;;42.53;16.13;;;10.60;59.30;;;;;;5056142;28;20044;-89
2021/12/30 05:56:45;;;;;;;44.53;13.85;;;10.80;58.90;;;;;;5055897;28;20107;-91
2021/12/30 05:59:11;;;;;;;32.85;13.10;;;10.80;59.10;;;;;;5082450;28;20103;-87
2021/12/30 06:01:37;;;;;;;37.63;12.82;;;10.80;58.60;;;;;;5084317;28;20099;-89
2021/12/30 06:04:03;;;;;;;49.20;13.40;;;10.50;59.40;;;;;;5073842;28;20017;-85
2021/12/30 06:06:28;;;;;;;42.85;13.50;;;10.20;60.10;;;;;;5073491;28;20103;-90
2021/12/30 06:08:55;;;;;;;68.45;17.95;;;10.00;60.60;;;;;;5075267;28;20472;-84
2021/12/30 06:11:21;;;;;;;41.75;14.85;;;9.90;61.20;;;;;;5056937;28;20029;-90
2021/12/30 06:13:47;;;;;;;35.42;12.30;;;10.10;60.70;;;;;;5075504;28;20012;-86
2021/12/30 06:16:12;;;;;;;51.67;14.07;;;10.00;61.00;;;;;;5075707;28;20031;-83
2021/12/30 06:18:38;;;;;;;52.30;14.98;;;10.20;60.60;;;;;;5075738;28;20024;-86
2021/12/30 06:21:04;;;;;;;47.78;14.55;;;10.30;60.50;;;;;;5071905;28;20020;-84
2021/12/30 06:23:30;;;;;;;59.90;14.82;;;10.30;60.30;;;;;;5093901;28;20478;-83
2021/12/30 06:25:55;;;;;;;60.05;16.05;;;10.30;60.20;;;;;;5075591;28;20077;-92
2021/12/30 06:28:21;;;;;;;43.33;15.13;;;10.40;60.30;;;;;;5065040;28;20020;-88
2021/12/30 06:30:47;;;;;;;60.15;18.42;;;10.50;60.00;;;;;;5076461;28;20040;-91
2021/12/30 06:33:12;;;;;;;56.22;17.95;;;10.40;59.70;;;;;;5059285;28;20455;-88
2021/12/30 06:35:38;;;;;;;78.85;18.48;;;10.50;60.00;;;;;;5078220;28;20025;-88
2021/12/30 06:38:04;;;;;;;65.05;17.15;;;10.60;59.60;;;;;;5059254;28;20024;-89
2021/12/30 06:40:30;;;;;;;54.72;16.17;;;10.60;59.80;;;;;;5077249;28;20021;-89
2021/12/30 06:42:57;;;;;;;43.25;14.77;;;10.40;59.90;;;;;;5076889;28;20027;-89
2021/12/30 06:45:23;;;;;;;73.78;18.52;;;10.50;59.70;;;;;;5063493;28;20070;-88
2021/12/30 06:47:48;;;;;;;105.82;19.35;;;10.30;59.70;;;;;;5076883;28;20016;-83
2021/12/30 06:50:15;;;;;;;59.03;14.73;;;10.10;60.30;;;;;;5078198;28;20063;-87
2021/12/30 06:52:43;;;;;;;93.80;17.05;;;10.00;60.80;;;;;;5081435;28;20016;-89
2021/12/30 06:55:09;;;;;;;63.28;15.40;;;9.90;61.00;;;;;;5075254;28;20028;-89
2021/12/30 06:57:35;;;;;;;115.68;17.30;;;9.80;61.30;;;;;;5079020;28;20020;-89
2021/12/30 07:00:06;;;;;;;41.50;14.27;;;9.80;61.70;;;;;;5078832;28;20474;-82
2021/12/30 07:02:34;;;;;;;42.75;13.30;;;9.90;61.50;;;;;;5065174;28;20024;-89
2021/12/30 07:05:00;;;;;;;74.75;17.95;;;9.90;61.20;;;;;;5065784;28;20077;-86
2021/12/30 07:07:25;;;;;;;48.53;14.25;;;9.50;61.60;;;;;;5069047;28;20020;-89
2021/12/30 07:09:51;;;;;;;58.03;18.20;;;9.30;62.50;;;;;;5077115;28;20032;-82
2021/12/30 07:12:17;;;;;;;64.30;19.63;;;9.10;63.40;;;;;;5078440;28;20069;-91
2021/12/30 07:14:43;;;;;;;49.10;17.67;;;9.40;62.70;;;;;;5096837;28;20432;-90
2021/12/30 07:17:09;;;;;;;90.50;20.25;;;9.60;62.50;;;;;;5078896;28;20035;-85
2021/12/30 07:19:35;;;;;;;71.40;19.40;;;9.70;62.10;;;;;;5078608;28;20024;-83
2021/12/30 07:22:01;;;;;;;42.78;16.40;;;9.80;62.10;;;;;;4371758;28;10000709;-85
2021/12/30 07:24:26;;;;;;;82.47;19.45;;;9.70;62.10;;;;;;5064792;28;20024;-88
2021/12/30 07:26:52;;;;;;;55.00;14.73;;;9.50;62.70;;;;;;5075973;28;20456;-88
2021/12/30 07:29:19;;;;;;;56.58;15.82;;;9.40;62.80;;;;;;5077666;28;20097;-81
2021/12/30 07:31:44;;;;;;;59.33;17.08;;;9.10;63.70;;;;;;5062850;28;20072;-84
2021/12/30 07:34:10;;;;;;;43.80;13.55;;;9.20;63.30;;;;;;5084666;28;20051;-88
2021/12/30 07:36:36;;;;;;;54.40;17.80;;;9.40;63.60;;;;;;5076377;28;20020;-87
2021/12/30 07:39:03;;;;;;;68.25;18.90;;;9.40;63.30;;;;;;5072592;28;20023;-90
2021/12/30 07:41:28;;;;;;;45.83;14.98;;;9.40;63.10;;;;;;5071938;28;20073;-82
2021/12/30 07:43:54;;;;;;;61.10;17.90;;;9.40;63.30;;;;;;5062952;28;20024;-82
2021/12/30 07:46:20;;;;;;;59.58;15.82;;;9.30;63.60;;;;;;5059865;28;20029;-81
2021/12/30 07:48:45;;;;;;;55.28;16.17;;;9.30;63.70;;;;;;5062112;28;20047;-81
2021/12/30 07:51:11;;;;;;;87.60;17.90;;;9.40;63.60;;;;;;5062747;28;20123;-88
2021/12/30 07:53:37;;;;;;;59.55;17.98;;;9.40;63.60;;;;;;5072141;28;20023;-90
2021/12/30 07:56:04;;;;;;;84.28;19.95;;;9.00;63.80;;;;;;5067472;28;20063;-84
2021/12/30 07:58:30;;;;;;;56.85;15.95;;;9.00;64.10;;;;;;5070990;28;20069;-83
2021/12/30 08:00:56;;;;;;;79.57;18.98;;;9.20;63.50;;;;;;5066127;28;20515;-87
2021/12/30 08:03:24;;;;;;;83.60;18.38;;;9.20;64.80;;;;;;5062405;28;20048;-81
2021/12/30 08:05:50;;;;;;;66.30;17.88;;;9.40;63.70;;;;;;5065141;28;20030;-81
2021/12/30 08:08:16;;;;;;;71.22;22.90;;;9.30;63.60;;;;;;5066760;28;20020;-87
2021/12/30 08:10:42;;;;;;;79.03;25.40;;;8.90;64.40;;;;;;5064390;28;20062;-87
2021/12/30 08:13:07;;;;;;;99.82;25.10;;;8.50;65.70;;;;;;5088354;28;20019;-82
2021/12/30 08:15:33;;;;;;;81.13;25.23;;;8.30;66.40;;;;;;5061582;28;20040;-83
2021/12/30 08:17:59;;;;;;;81.85;29.48;;;8.30;67.20;;;;;;5071855;28;20024;-82
2021/12/30 08:20:27;;;;;;;65.53;21.20;;;8.50;66.70;;;;;;5090062;28;20012;-89
2021/12/30 08:22:53;;;;;;;123.30;27.00;;;8.80;66.10;;;;;;5084436;28;20055;-90
2021/12/30 08:25:20;;;;;;;75.88;19.27;;;8.90;65.10;;;;;;5078785;28;20012;-83
2021/12/30 08:27:46;;;;;;;59.40;17.60;;;8.70;65.70;;;;;;5095270;28;20547;-89
2021/12/30 08:30:15;;;;;;;61.40;17.42;;;8.60;66.40;;;;;;5086785;28;20416;-85
2021/12/30 08:32:41;;;;;;;108.63;21.38;;;8.70;66.10;;;;;;5068883;28;20047;-90
2021/12/30 08:35:08;;;;;;;65.30;20.83;;;8.20;66.70;;;;;;5073984;28;20065;-89
2021/12/30 08:37:34;;;;;;;60.15;16.90;;;8.10;68.10;;;;;;5073112;28;20024;-89
2021/12/30 08:40:02;;;;;;;102.50;20.83;;;8.20;67.80;;;;;;5059043;28;20028;-84
2021/12/30 08:42:29;;;;;;;80.55;17.75;;;8.50;67.00;;;;;;5083669;28;20014;-90
2021/12/30 08:44:57;;;;;;;76.80;18.55;;;8.80;66.50;;;;;;5061114;28;20056;-91
2021/12/30 08:47:24;;;;;;;63.03;18.27;;;8.60;65.60;;;;;;5069561;28;20042;-88
2021/12/30 08:49:50;;;;;;;103.78;28.33;;;8.30;67.60;;;;;;5076465;28;20024;-81
2021/12/30 08:52:20;;;;;;;72.47;17.92;;;8.50;67.00;;;;;;5064734;28;20038;-88
2021/12/30 08:54:49;;;;;;;43.22;15.60;;;9.00;66.00;;;;;;5069376;28;20020;-82
2021/12/30 08:57:27;;;;;;;94.00;23.75;;;9.10;65.40;;;;;;5095225;28;20055;-85
2021/12/30 08:59:53;;;;;;;81.18;23.83;;;9.30;64.40;;;;;;5066632;28;20160;-90
2021/12/30 09:02:19;;;;;;;74.97;23.00;;;9.20;64.60;;;;;;5077185;28;20445;-86
2021/12/30 09:04:46;;;;;;;55.92;19.65;;;9.60;64.50;;;;;;5072288;28;20020;-85
2021/12/30 09:07:16;;;;;;;75.25;21.33;;;9.70;63.70;;;;;;5073117;28;20459;-87
2021/12/30 09:09:43;;;;;;;78.45;29.85;;;9.90;63.80;;;;;;5056280;28;20051;-88
2021/12/30 09:12:09;;;;;;;102.13;34.35;;;9.80;62.90;;;;;;5065649;28;20132;-87
2021/12/30 09:14:34;;;;;;;75.72;28.95;;;10.00;63.60;;;;;;5094160;28;20098;-87
2021/12/30 09:17:00;;;;;;;94.82;29.98;;;9.90;62.70;;;;;;5075541;28;20024;-85
2021/12/30 09:19:26;;;;;;;85.28;27.08;;;9.80;63.60;;;;;;5056623;28;20087;-88
2021/12/30 09:21:52;;;;;;;84.50;23.75;;;9.80;63.60;;;;;;5076336;28;20020;-86
2021/12/30 09:24:18;;;;;;;86.47;24.20;;;10.00;63.30;;;;;;5057295;28;20017;-82
2021/12/30 09:26:44;;;;;;;75.03;26.15;;;10.20;62.70;;;;;;5055912;28;20024;-83
2021/12/30 09:29:10;;;;;;;93.20;24.35;;;10.00;62.90;;;;;;5075738;28;20379;-84
2021/12/30 09:31:41;;;;;;;99.45;25.88;;;10.20;63.20;;;;;;5064282;28;20052;-87
2021/12/30 09:34:07;;;;;;;103.10;29.60;;;10.20;63.10;;;;;;5073649;28;20028;-84
2021/12/30 09:36:33;;;;;;;112.85;32.50;;;10.40;62.40;;;;;;5055847;28;20019;-86
2021/12/30 09:38:59;;;;;;;79.75;27.83;;;10.30;62.40;;;;;;5086623;28;20027;-85
2021/12/30 09:41:25;;;;;;;99.50;26.88;;;10.00;63.20;;;;;;5066796;28;20020;-84
2021/12/30 09:43:51;;;;;;;101.68;29.27;;;9.90;63.70;;;;;;5068355;28;20056;-85
2021/12/30 09:46:17;;;;;;;80.00;26.90;;;9.80;64.30;;;;;;5088456;28;20051;-86
2021/12/30 09:48:44;;;;;;;103.20;27.58;;;9.90;63.90;;;;;;5075853;28;20048;-89
2021/12/30 09:51:10;;;;;;;75.60;24.30;;;9.80;64.50;;;;;;5076518;28;20529;-83
2021/12/30 09:53:36;;;;;;;98.30;31.13;;;9.70;64.40;;;;;;5076195;28;20030;-89
2021/12/30 09:56:02;;;;;;;70.93;25.63;;;9.40;65.30;;;;;;5073719;28;20119;-84
2021/12/30 09:58:29;;;;;;;118.00;26.45;;;9.80;64.70;;;;;;5075555;28;20044;-84
2021/12/30 10:00:56;;;;;;;91.80;26.35;;;9.60;64.90;;;;;;5075457;28;20024;-90
2021/12/30 10:03:22;;;;;;;91.78;27.83;;;9.90;64.70;;;;;;5076249;28;20028;-89
2021/12/30 10:05:48;;;;;;;103.68;26.00;;;10.00;64.60;;;;;;5065121;28;20021;-90
2021/12/30 10:08:18;;;;;;;76.03;22.67;;;10.00;64.80;;;;;;5060992;28;20426;-89
2021/12/30 10:10:56;;;;;;;72.13;25.90;;;10.30;64.20;;;;;;5060768;28;20036;-85
2021/12/30 10:13:29;;;;;;;123.63;25.08;;;10.30;64.20;;;;;;5097947;28;20020;-91
2021/12/30 10:16:17;;;;;;;93.40;24.63;;;10.40;64.00;;;;;;4725577;28;10000086;-81
2021/12/30 10:18:50;;;;;;;164.80;24.83;;;9.90;64.60;;;;;;5080680;28;20029;-88
2021/12/30 10:21:36;;;;;;;72.15;22.60;;;9.40;66.00;;;;;;5068647;28;20081;-88
2021/12/30 10:24:05;;;;;;;71.97;21.38;;;9.50;66.50;;;;;;5064892;28;20027;-82
2021/12/30 10:26:48;;;;;;;102.35;23.80;;;9.90;65.00;;;;;;5075486;28;20023;-83
2021/12/30 10:29:13;;;;;;;96.50;23.00;;;10.00;65.50;;;;;;5063620;28;20031;-84
2021/12/30 10:31:42;;;;;;;76.90;20.65;;;10.00;64.90;;;;;;5098251;28;20048;-82
2021/12/30 10:34:12;;;;;;;82.00;20.90;;;10.20;64.20;;;;;;5079514;28;20030;-81
2021/12/30 10:36:42;;;;;;;85.10;22.80;;;10.50;64.00;;;;;;5078325;28;20522;-83
2021/12/30 10:39:21;;;;;;;83.17;22.67;;;10.60;63.60;;;;;;5078657;28;20028;-85
2021/12/30 10:41:50;;;;;;;82.43;22.70;;;10.60;62.80;;;;;;5078223;28;20263;-83
2021/12/30 10:44:17;;;;;;;91.10;23.02;;;10.80;62.60;;;;;;5078475;28;20500;-84
2021/12/30 10:46:44;;;;;;;106.40;21.92;;;10.90;62.60;;;;;;5096452;28;20031;-82
2021/12/30 10:49:27;;;;;;;88.57;20.20;;;10.50;63.40;;;;;;5096306;28;20366;-83
2021/12/30 10:51:55;;;;;;;82.18;21.73;;;10.40;63.80;;;;;;5077972;28;20028;-83
2021/12/30 10:54:31;;;;;;;115.25;24.50;;;10.10;64.70;;;;;;5078262;28;20020;-85
2021/12/30 10:56:58;;;;;;;115.45;25.60;;;10.30;64.80;;;;;;5078298;28;20052;-82
2021/12/30 10:59:29;;;;;;;85.82;21.27;;;10.20;64.90;;;;;;5077921;28;20024;-83
2021/12/30 11:01:58;;;;;;;96.40;23.50;;;10.10;65.00;;;;;;5096238;28;20024;-84
2021/12/30 11:04:58;;;;;;;107.50;23.60;;;10.00;65.00;;;;;;5096360;28;20486;-83
2021/12/30 11:07:53;;;;;;;100.05;22.98;;;10.30;65.00;;;;;;5090877;28;20063;-81
2021/12/30 11:10:29;;;;;;;68.03;21.13;;;10.40;64.00;;;;;;5078094;28;20104;-82
2021/12/30 11:13:12;;;;;;;78.72;23.58;;;10.20;64.80;;;;;;5078083;28;20028;-87
2021/12/30 11:15:38;;;;;;;85.38;23.02;;;10.00;65.80;;;;;;5077021;28;20210;-86
2021/12/30 11:18:07;;;;;;;79.82;24.52;;;10.10;65.20;;;;;;5077926;28;20020;-89
2021/12/30 11:20:38;;;;;;;81.93;25.02;;;10.00;65.50;;;;;;5077598;28;20048;-87
2021/12/30 11:23:04;;;;;;;59.83;22.00;;;9.80;66.70;;;;;;5077784;28;20479;-81
2021/12/30 11:25:31;;;;;;;77.95;24.38;;;9.60;67.30;;;;;;5077810;28;20020;-84
2021/12/30 11:27:58;;;;;;;83.55;24.83;;;10.00;66.70;;;;;;5077603;28;20024;-88
2021/12/30 11:30:24;;;;;;;98.35;26.23;;;10.30;65.60;;;;;;5078069;28;20104;-91
2021/12/30 11:32:50;;;;;;;81.28;26.92;;;10.60;65.20;;;;;;5096327;28;20481;-85
2021/12/30 11:35:22;;;;;;;80.82;25.05;;;10.90;64.10;;;;;;5078151;28;20024;-87
2021/12/30 11:37:48;;;;;;;116.13;25.98;;;10.40;65.40;;;;;;5096363;28;20024;-91
2021/12/30 11:40:21;;;;;;;85.38;24.63;;;10.40;65.00;;;;;;5077981;28;20020;-86
2021/12/30 11:42:52;;;;;;;72.40;24.08;;;10.50;64.90;;;;;;5078183;28;20024;-90
2021/12/30 11:45:36;;;;;;;96.55;25.38;;;10.50;64.50;;;;;;5078080;28;20027;-89
2021/12/30 11:48:07;;;;;;;71.18;23.08;;;10.40;64.60;;;;;;5078602;28;20020;-91
2021/12/30 11:50:34;;;;;;;94.40;27.63;;;10.30;65.70;;;;;;5095794;28;20012;-83
2021/12/30 11:53:00;;;;;;;127.10;26.75;;;10.40;65.50;;;;;;5095819;28;20028;-90
2021/12/30 11:55:51;;;;;;;102.28;25.10;;;10.60;65.00;;;;;;5077724;28;20028;-83
2021/12/30 11:58:37;;;;;;;105.10;25.08;;;10.90;64.10;;;;;;5096189;28;20023;-92
2021/12/30 12:01:29;;;;;;;119.28;28.45;;;11.00;63.30;;;;;;5077714;28;20016;-85
2021/12/30 12:04:03;;;;;;;97.40;28.70;;;10.90;63.30;;;;;;5095610;28;20100;-91
2021/12/30 12:06:42;;;;;;;79.63;27.25;;;10.70;64.20;;;;;;5077653;28;20031;-89
2021/12/30 12:09:14;;;;;;;109.22;29.35;;;10.80;64.40;;;;;;5077634;28;20051;-86
2021/12/30 12:11:52;;;;;;;101.40;26.60;;;11.00;63.50;;;;;;5077517;28;20405;-91
2021/12/30 12:14:27;;;;;;;126.78;29.98;;;10.80;63.70;;;;;;5077355;28;20024;-88
2021/12/30 12:17:07;;;;;;;137.30;31.83;;;10.70;64.30;;;;;;5077631;28;20048;-86
2021/12/30 12:19:49;;;;;;;127.72;29.65;;;10.90;64.50;;;;;;5077148;28;20020;-87
2021/12/30 12:22:21;;;;;;;181.77;32.65;;;10.90;63.80;;;;;;5077388;28;20020;-91
2021/12/30 12:24:48;;;;;;;136.50;34.38;;;10.80;64.00;;;;;;5077141;28;20024;-89
2021/12/30 12:27:20;;;;;;;84.13;27.35;;;10.90;63.70;;;;;;5077187;28;20012;-92
2021/12/30 12:29:56;;;;;;;100.38;27.30;;;11.20;63.10;;;;;;5077442;28;20012;-88
2021/12/30 12:32:34;;;;;;;110.88;28.73;;;11.30;62.80;;;;;;5077263;28;20036;-89
2021/12/30 12:35:20;;;;;;;115.80;31.75;;;11.20;63.10;;;;;;5095234;28;20059;-90
2021/12/30 12:37:48;;;;;;;133.98;32.88;;;11.30;62.80;;;;;;5077720;28;20387;-84